createdAt,value
2018-11-07T00:01:58.998Z,98664.73
2018-11-07T00:04:26.565Z,98670.80
2018-11-07T00:06:54.168Z,98671.58
2018-11-07T00:09:21.763Z,98659.39
2018-11-07T00:11:52.056Z,98666.04
2018-11-07T00:14:19.792Z,98666.27
2018-11-07T00:16:47.322Z,98658.40
2018-11-07T00:19:14.907Z,98659.98
2018-11-07T00:21:42.444Z,98667.04
2018-11-07T00:24:10.048Z,98667.18
2018-11-07T00:26:37.574Z,98672.30
2018-11-07T00:29:05.181Z,98660.90
2018-11-07T00:31:32.704Z,98667.05
2018-11-07T00:34:01.454Z,98674.30
2018-11-07T00:36:29.600Z,98676.33
2018-11-07T00:38:57.192Z,98676.25
2018-11-07T00:41:24.766Z,98680.68
2018-11-07T00:43:52.332Z,98680.55
2018-11-07T00:46:19.876Z,98686.59
2018-11-07T00:48:47.457Z,98689.64
2018-11-07T00:51:15.023Z,98688.63
2018-11-07T00:53:42.599Z,98689.74
2018-11-07T00:56:10.219Z,98689.83
2018-11-07T00:58:42.457Z,98690.70
2018-11-07T01:01:10.036Z,98688.45
2018-11-07T01:03:37.638Z,98689.55
2018-11-07T01:06:05.175Z,98690.89
2018-11-07T01:08:32.716Z,98680.69
2018-11-07T01:11:00.348Z,98682.41
2018-11-07T01:13:27.959Z,98678.45
2018-11-07T01:15:55.560Z,98677.63
2018-11-07T01:18:23.089Z,98687.16
2018-11-07T01:20:50.673Z,98689.53
2018-11-07T01:23:18.234Z,98693.23
2018-11-07T01:25:45.842Z,98696.88
2018-11-07T01:28:13.523Z,98693.11
2018-11-07T01:30:42.132Z,98683.40
2018-11-07T01:33:09.741Z,98684.69
2018-11-07T01:35:37.305Z,98682.26
2018-11-07T01:38:04.831Z,98684.93
2018-11-07T01:40:32.405Z,98687.02
2018-11-07T01:43:00.016Z,98679.03
2018-11-07T01:45:27.543Z,98672.39
2018-11-07T01:47:55.089Z,98676.34
2018-11-07T01:50:22.659Z,98679.83
2018-11-07T01:52:59.833Z,98676.48
2018-11-07T01:55:27.440Z,98676.01
2018-11-07T01:57:58.024Z,98669.76
2018-11-07T02:00:25.622Z,98668.77
2018-11-07T02:02:53.168Z,98660.13
2018-11-07T02:05:20.759Z,98663.34
2018-11-07T02:07:48.309Z,98672.22
2018-11-07T02:10:15.930Z,98670.55
2018-11-07T02:12:43.468Z,98668.25
2018-11-07T02:15:11.641Z,98663.53
2018-11-07T02:17:39.238Z,98664.91
2018-11-07T02:20:06.819Z,98663.05
2018-11-07T02:22:34.455Z,98668.61
2018-11-07T02:25:02.040Z,98677.58
2018-11-07T02:27:36.728Z,98665.06
2018-11-07T02:30:04.334Z,98666.82
2018-11-07T02:32:31.888Z,98667.02
2018-11-07T02:34:59.485Z,98665.69
2018-11-07T02:37:30.437Z,98660.63
2018-11-07T02:39:57.986Z,98658.41
2018-11-07T02:42:25.563Z,98660.23
2018-11-07T02:44:53.084Z,98666.27
2018-11-07T02:47:21.708Z,98665.13
2018-11-07T02:49:49.303Z,98655.98
2018-11-07T02:52:16.891Z,98653.93
2018-11-07T02:54:44.428Z,98661.93
2018-11-07T02:57:12.006Z,98668.48
2018-11-07T02:59:39.593Z,98666.36
2018-11-07T03:02:08.419Z,98667.12
2018-11-07T03:04:36.041Z,98664.57
2018-11-07T03:07:03.606Z,98676.72
2018-11-07T03:09:41.377Z,98676.72
2018-11-07T03:12:09.510Z,98676.89
2018-11-07T03:14:37.080Z,98677.39
2018-11-07T03:17:06.775Z,98678.73
2018-11-07T03:19:34.296Z,98674.36
2018-11-07T03:22:01.823Z,98683.32
2018-11-07T03:24:29.413Z,98678.27
2018-11-07T03:26:57.000Z,98682.14
2018-11-07T03:29:24.559Z,98687.86
2018-11-07T03:31:52.356Z,98685.50
2018-11-07T03:34:19.897Z,98683.83
2018-11-07T03:36:47.489Z,98684.97
2018-11-07T03:39:15.038Z,98687.20
2018-11-07T03:41:42.645Z,98694.06
2018-11-07T03:44:10.208Z,98700.41
2018-11-07T03:46:37.769Z,98695.35
2018-11-07T03:49:05.329Z,98686.62
2018-11-07T03:51:32.910Z,98688.61
2018-11-07T03:54:00.468Z,98686.17
2018-11-07T03:56:28.006Z,98686.84
2018-11-07T03:58:55.611Z,98682.76
2018-11-07T04:01:23.155Z,98678.34
2018-11-07T04:03:51.236Z,98676.56
2018-11-07T04:06:18.820Z,98671.92
2018-11-07T04:08:46.378Z,98672.03
2018-11-07T04:11:13.960Z,98673.45
2018-11-07T04:13:41.522Z,98671.72
2018-11-07T04:16:09.114Z,98673.81
2018-11-07T04:18:36.726Z,98671.60
2018-11-07T04:21:04.320Z,98667.98
2018-11-07T04:23:31.996Z,98664.97
2018-11-07T04:26:07.887Z,98664.45
2018-11-07T04:28:35.453Z,98658.48
2018-11-07T04:31:03.067Z,98654.02
2018-11-07T04:33:30.716Z,98660.45
2018-11-07T04:35:58.303Z,98663.16
2018-11-07T04:38:28.927Z,98645.67
2018-11-07T04:40:56.445Z,98652.34
2018-11-07T04:43:24.020Z,98661.03
2018-11-07T04:45:51.594Z,98651.57
2018-11-07T04:48:19.192Z,98654.95
2018-11-07T04:50:46.732Z,98646.56
2018-11-07T04:53:14.306Z,98641.70
2018-11-07T04:55:41.906Z,98645.63
2018-11-07T04:58:09.448Z,98643.47
2018-11-07T05:00:37.064Z,98652.05
2018-11-07T05:03:04.607Z,98656.44
2018-11-07T05:05:32.221Z,98648.64
2018-11-07T05:07:59.753Z,98649.61
2018-11-07T05:10:27.335Z,98651.17
2018-11-07T05:12:54.852Z,98647.03
2018-11-07T05:15:22.468Z,98642.56
2018-11-07T05:17:49.998Z,98656.81
2018-11-07T05:20:28.628Z,98653.33
2018-11-07T05:22:56.185Z,98641.67
2018-11-07T05:25:23.790Z,98636.56
2018-11-07T05:27:51.469Z,98631.63
2018-11-07T05:30:19.072Z,98633.23
2018-11-07T05:32:46.676Z,98644.08
2018-11-07T05:35:14.273Z,98641.00
2018-11-07T05:37:42.359Z,98650.06
2018-11-07T05:40:09.906Z,98651.35
2018-11-07T05:42:37.504Z,98649.71
2018-11-07T05:45:05.092Z,98657.83
2018-11-07T05:47:32.666Z,98662.46
2018-11-07T05:50:00.252Z,98664.84
2018-11-07T05:52:27.791Z,98666.64
2018-11-07T05:54:55.401Z,98672.90
2018-11-07T05:57:22.930Z,98670.55
2018-11-07T05:59:50.439Z,98670.00
2018-11-07T06:02:18.019Z,98666.01
2018-11-07T06:04:45.570Z,98661.81
2018-11-07T06:07:13.150Z,98666.75
2018-11-07T06:09:40.692Z,98669.53
2018-11-07T06:12:08.291Z,98670.99
2018-11-07T06:14:47.649Z,98678.62
2018-11-07T06:17:15.226Z,98685.08
2018-11-07T06:19:42.811Z,98685.55
2018-11-07T06:22:10.367Z,98681.80
2018-11-07T06:24:38.059Z,98679.41
2018-11-07T06:27:05.590Z,98679.33
2018-11-07T06:29:33.210Z,98672.56
2018-11-07T06:32:00.796Z,98683.22
2018-11-07T06:34:28.384Z,98691.30
2018-11-07T06:36:55.960Z,98686.56
2018-11-07T06:39:23.531Z,98690.92
2018-11-07T06:41:51.164Z,98691.72
2018-11-07T06:44:18.785Z,98693.93
2018-11-07T06:46:46.812Z,98693.58
2018-11-07T06:49:14.796Z,98682.40
2018-11-07T06:51:46.805Z,98682.87
2018-11-07T06:54:18.666Z,98687.34
2018-11-07T06:56:47.406Z,98691.98
2018-11-07T06:59:16.101Z,98701.23
2018-11-07T07:01:44.178Z,98692.82
2018-11-07T07:04:15.822Z,98699.51
2018-11-07T07:06:44.424Z,98701.58
2018-11-07T07:09:12.887Z,98695.98
2018-11-07T07:11:41.118Z,98690.09
2018-11-07T07:14:08.674Z,98683.70
2018-11-07T07:16:36.292Z,98685.52
2018-11-07T07:19:03.902Z,98677.64
2018-11-07T07:21:31.515Z,98680.30
2018-11-07T07:23:59.082Z,98683.80
2018-11-07T07:26:26.671Z,98683.75
2018-11-07T07:28:54.224Z,98694.84
2018-11-07T07:31:26.596Z,98694.58
2018-11-07T07:33:54.152Z,98691.18
2018-11-07T07:36:21.939Z,98688.86
2018-11-07T07:38:49.535Z,98691.43
2018-11-07T07:41:17.116Z,98686.96
2018-11-07T07:43:44.662Z,98691.95
2018-11-07T07:46:12.282Z,98696.67
2018-11-07T07:48:39.828Z,98702.04
2018-11-07T07:51:07.431Z,98700.45
2018-11-07T07:53:34.964Z,98708.19
2018-11-07T07:56:03.827Z,98701.61
2018-11-07T07:58:31.753Z,98699.94
2018-11-07T08:00:59.335Z,98697.08
2018-11-07T08:03:27.057Z,98694.02
2018-11-07T08:05:54.618Z,98703.00
2018-11-07T08:08:22.225Z,98698.13
2018-11-07T08:10:49.848Z,98703.09
2018-11-07T08:13:17.494Z,98709.69
2018-11-07T08:15:45.021Z,98699.40
2018-11-07T08:18:12.685Z,98692.02
2018-11-07T08:20:40.324Z,98691.27
2018-11-07T08:23:08.039Z,98707.47
2018-11-07T08:25:40.750Z,98698.34
2018-11-07T08:28:08.523Z,98705.16
2018-11-07T08:30:37.025Z,98709.83
2018-11-07T08:33:04.578Z,98708.00
2018-11-07T08:35:34.479Z,98707.45
2018-11-07T08:38:02.097Z,98707.84
2018-11-07T08:40:29.714Z,98703.45
2018-11-07T08:42:57.694Z,98712.52
2018-11-07T08:45:25.282Z,98701.85
2018-11-07T08:47:53.175Z,98708.37
2018-11-07T08:50:20.943Z,98705.61
2018-11-07T08:52:48.718Z,98694.59
2018-11-07T08:55:16.296Z,98704.09
2018-11-07T08:57:45.138Z,98700.88
2018-11-07T09:00:12.770Z,98711.11
2018-11-07T09:02:40.500Z,98707.97
2018-11-07T09:05:08.185Z,98710.81
2018-11-07T09:07:35.867Z,98709.38
2018-11-07T09:10:11.997Z,98703.45
2018-11-07T09:12:39.709Z,98714.91
2018-11-07T09:15:07.386Z,98709.56
2018-11-07T09:17:35.120Z,98700.42
2018-11-07T09:20:17.709Z,98698.52
2018-11-07T09:22:45.445Z,98698.51
2018-11-07T09:25:13.063Z,98703.63
2018-11-07T09:27:40.782Z,98698.14
2018-11-07T09:30:08.596Z,98699.72
2018-11-07T09:32:36.225Z,98710.58
2018-11-07T09:35:03.925Z,98700.61
2018-11-07T09:37:31.874Z,98706.95
2018-11-07T09:40:01.210Z,98698.37
2018-11-07T09:42:29.451Z,98704.68
2018-11-07T09:44:57.291Z,98711.06
2018-11-07T09:47:24.990Z,98707.05
2018-11-07T09:49:52.598Z,98714.03
2018-11-07T09:52:20.301Z,98701.04
2018-11-07T09:54:47.842Z,98708.78
2018-11-07T09:57:15.661Z,98706.59
2018-11-07T09:59:43.420Z,98705.02
2018-11-07T10:02:11.145Z,98703.85
2018-11-07T10:04:46.024Z,98707.38
2018-11-07T10:07:13.680Z,98712.48
2018-11-07T10:09:41.277Z,98703.29
2018-11-07T10:12:08.951Z,98704.53
2018-11-07T10:14:36.632Z,98704.29
2018-11-07T10:17:04.408Z,98695.75
2018-11-07T10:19:32.027Z,98698.51
2018-11-07T10:22:00.299Z,98693.07
2018-11-07T10:24:27.933Z,98696.02
2018-11-07T10:26:55.673Z,98705.67
2018-11-07T10:29:23.575Z,98694.41
2018-11-07T10:31:50.945Z,98695.39
2018-11-07T10:34:18.504Z,98690.27
2018-11-07T10:36:46.650Z,98698.23
2018-11-07T10:39:14.257Z,98690.77
2018-11-07T10:41:41.848Z,98688.34
2018-11-07T10:44:09.420Z,98692.51
2018-11-07T10:46:37.056Z,98688.75
2018-11-07T10:49:04.696Z,98691.33
2018-11-07T10:51:32.336Z,98693.00
2018-11-07T10:54:00.051Z,98691.02
2018-11-07T10:56:27.841Z,98697.94
2018-11-07T10:59:02.685Z,98688.22
2018-11-07T11:01:30.268Z,98684.56
2018-11-07T11:03:57.889Z,98685.88
2018-11-07T11:06:25.559Z,98682.93
2018-11-07T11:08:53.125Z,98676.23
2018-11-07T11:11:20.787Z,98683.41
2018-11-07T11:13:48.400Z,98678.39
2018-11-07T11:16:15.993Z,98677.67
2018-11-07T11:18:43.596Z,98683.03
2018-11-07T11:21:11.193Z,98675.87
2018-11-07T11:23:38.766Z,98677.53
2018-11-07T11:26:06.345Z,98681.75
2018-11-07T11:28:33.966Z,98691.27
2018-11-07T11:31:01.570Z,98693.58
2018-11-07T11:33:29.192Z,98690.28
2018-11-07T11:35:56.756Z,98681.02
2018-11-07T11:38:24.489Z,98692.64
2018-11-07T11:40:52.129Z,98686.56
2018-11-07T11:43:19.709Z,98689.20
2018-11-07T11:45:47.680Z,98677.95
2018-11-07T11:48:15.285Z,98671.33
2018-11-07T11:50:42.886Z,98670.89
2018-11-07T11:53:11.010Z,98673.64
2018-11-07T11:55:38.653Z,98680.73
2018-11-07T11:58:06.189Z,98680.23
2018-11-07T12:00:33.882Z,98669.43
2018-11-07T12:03:01.456Z,98670.11
2018-11-07T12:05:29.156Z,98662.38
2018-11-07T12:07:57.053Z,98666.02
2018-11-07T12:10:24.837Z,98668.72
2018-11-07T12:12:52.457Z,98661.28
2018-11-07T12:15:20.384Z,98661.80
2018-11-07T12:17:48.210Z,98674.94
2018-11-07T12:20:16.044Z,98674.17
2018-11-07T12:22:43.677Z,98673.15
2018-11-07T12:25:11.636Z,98666.92
2018-11-07T12:27:39.573Z,98665.49
2018-11-07T12:30:07.557Z,98671.34
2018-11-07T12:32:35.458Z,98673.95
2018-11-07T12:35:03.509Z,98667.59
2018-11-07T12:37:31.408Z,98680.27
2018-11-07T12:39:59.096Z,98666.56
2018-11-07T12:42:27.060Z,98670.44
2018-11-07T12:44:54.840Z,98671.78
2018-11-07T12:47:22.468Z,98675.00
2018-11-07T12:49:50.431Z,98679.23
2018-11-07T12:52:18.089Z,98671.88
2018-11-07T12:54:46.706Z,98670.16
2018-11-07T12:57:14.445Z,98674.73
2018-11-07T12:59:42.061Z,98664.41
2018-11-07T13:02:09.734Z,98676.88
2018-11-07T13:04:37.516Z,98670.70
2018-11-07T13:07:05.186Z,98675.75
2018-11-07T13:09:38.107Z,98673.51
2018-11-07T13:12:05.707Z,98680.42
2018-11-07T13:14:33.329Z,98679.08
2018-11-07T13:17:00.897Z,98684.55
2018-11-07T13:19:28.566Z,98684.50
2018-11-07T13:21:56.171Z,98685.62
2018-11-07T13:24:23.688Z,98689.02
2018-11-07T13:26:51.300Z,98687.29
2018-11-07T13:29:18.862Z,98689.97
2018-11-07T13:31:46.495Z,98680.70
2018-11-07T13:34:14.102Z,98694.33
2018-11-07T13:36:41.834Z,98690.36
2018-11-07T13:39:09.873Z,98691.59
2018-11-07T13:41:37.143Z,98696.22
2018-11-07T13:44:05.062Z,98690.84
2018-11-07T13:46:32.693Z,98689.87
2018-11-07T13:49:00.222Z,98701.91
2018-11-07T13:51:28.093Z,98702.50
2018-11-07T13:53:55.820Z,98708.54
2018-11-07T13:56:23.497Z,98702.91
2018-11-07T13:58:51.039Z,98715.64
2018-11-07T14:01:18.733Z,98721.65
2018-11-07T14:03:46.368Z,98725.94
2018-11-07T14:06:14.046Z,98732.84
2018-11-07T14:08:41.881Z,98729.11
2018-11-07T14:11:11.242Z,98734.38
2018-11-07T14:13:38.945Z,98738.98
2018-11-07T14:16:06.628Z,98746.55
2018-11-07T14:18:48.296Z,98750.95
2018-11-07T14:21:15.971Z,98751.02
2018-11-07T14:23:43.696Z,98757.28
2018-11-07T14:26:19.387Z,98761.09
2018-11-07T14:28:47.396Z,98764.14
2018-11-07T14:31:15.071Z,98759.06
2018-11-07T14:34:20.475Z,98770.69
2018-11-07T14:36:49.652Z,98773.33
2018-11-07T14:39:17.369Z,98774.25
2018-11-07T14:41:44.896Z,98777.88
2018-11-07T14:44:12.495Z,98776.44
2018-11-07T14:46:40.142Z,98780.63
2018-11-07T14:49:07.783Z,98782.75
2018-11-07T14:51:35.519Z,98790.75
2018-11-07T14:54:03.846Z,98791.50
2018-11-07T14:56:31.513Z,98790.09
2018-11-07T14:59:09.170Z,98797.09
2018-11-07T15:01:37.062Z,98797.59
2018-11-07T15:04:04.679Z,98804.20
2018-11-07T15:06:32.244Z,98800.11
2018-11-07T15:08:59.863Z,98806.13
2018-11-07T15:11:27.572Z,98800.72
2018-11-07T15:13:55.007Z,98803.47
2018-11-07T15:16:22.602Z,98801.00
2018-11-07T15:18:50.196Z,98803.96
2018-11-07T15:21:17.781Z,98803.89
2018-11-07T15:23:45.317Z,98805.98
2018-11-07T15:26:12.910Z,98802.92
2018-11-07T15:28:40.475Z,98804.10
2018-11-07T15:31:08.093Z,98799.72
2018-11-07T15:33:35.784Z,98804.33
2018-11-07T15:36:03.410Z,98799.69
2018-11-07T15:38:30.922Z,98801.77
2018-11-07T15:40:58.496Z,98808.27
2018-11-07T15:43:26.112Z,98806.78
2018-11-07T15:45:53.647Z,98807.67
2018-11-07T15:48:21.222Z,98815.11
2018-11-07T15:50:48.854Z,98821.13
2018-11-07T15:53:21.478Z,98819.37
2018-11-07T15:55:49.111Z,98827.19
2018-11-07T15:58:16.671Z,98830.44
2018-11-07T16:00:44.263Z,98829.98
2018-11-07T16:03:11.815Z,98833.13
2018-11-07T16:05:39.406Z,98833.73
2018-11-07T16:08:06.934Z,98844.58
2018-11-07T16:10:34.497Z,98852.08
2018-11-07T16:13:02.137Z,98854.85
2018-11-07T16:15:29.784Z,98857.34
2018-11-07T16:17:57.264Z,98862.73
2018-11-07T16:20:24.834Z,98866.70
2018-11-07T16:22:52.461Z,98865.31
2018-11-07T16:25:20.024Z,98872.60
2018-11-07T16:27:47.581Z,98869.17
2018-11-07T16:30:15.157Z,98875.63
2018-11-07T16:32:42.698Z,98874.82
2018-11-07T16:35:10.225Z,98878.86
2018-11-07T16:37:37.840Z,98884.22
2018-11-07T16:40:05.397Z,98884.92
2018-11-07T16:42:32.995Z,98884.83
2018-11-07T16:45:00.616Z,98886.58
2018-11-07T16:47:38.021Z,98881.98
2018-11-07T16:50:05.717Z,98880.15
2018-11-07T16:52:33.328Z,98885.59
2018-11-07T16:55:00.965Z,98877.14
2018-11-07T16:57:28.566Z,98883.47
2018-11-07T16:59:56.146Z,98882.25
2018-11-07T17:02:23.730Z,98883.50
2018-11-07T17:04:51.298Z,98887.98
2018-11-07T17:07:18.963Z,98893.66
2018-11-07T17:09:46.487Z,98895.06
2018-11-07T17:12:14.012Z,98901.75
2018-11-07T17:14:41.641Z,98903.16
2018-11-07T17:17:09.184Z,98898.92
2018-11-07T17:19:36.921Z,98907.17
2018-11-07T17:22:04.682Z,98910.62
2018-11-07T17:24:32.447Z,98918.59
2018-11-07T17:26:59.891Z,98914.86
2018-11-07T17:29:27.508Z,98922.45
2018-11-07T17:31:55.072Z,98923.07
2018-11-07T17:34:22.607Z,98924.32
2018-11-07T17:36:50.135Z,98925.18
2018-11-07T17:39:17.707Z,98926.52
2018-11-07T17:41:46.061Z,98928.09
2018-11-07T17:44:13.776Z,98929.14
2018-11-07T17:46:41.322Z,98929.27
2018-11-07T17:49:08.910Z,98935.58
2018-11-07T17:51:36.459Z,98930.53
2018-11-07T17:54:04.028Z,98943.70
2018-11-07T17:56:31.624Z,98934.53
2018-11-07T17:58:59.229Z,98936.98
2018-11-07T18:01:26.752Z,98937.69
2018-11-07T18:03:54.351Z,98935.31
2018-11-07T18:06:21.891Z,98943.23
2018-11-07T18:08:49.505Z,98952.50
2018-11-07T18:11:17.023Z,98950.28
2018-11-07T18:13:44.712Z,98954.94
2018-11-07T18:16:12.254Z,98957.79
2018-11-07T18:18:39.840Z,98965.43
2018-11-07T18:21:07.582Z,98960.67
2018-11-07T18:23:35.163Z,98963.47
2018-11-07T18:26:02.728Z,98975.41
2018-11-07T18:28:30.304Z,98973.02
2018-11-07T18:30:57.880Z,98977.59
2018-11-07T18:33:25.492Z,98977.73
2018-11-07T18:35:53.204Z,98981.38
2018-11-07T18:38:20.662Z,98984.16
2018-11-07T18:40:48.238Z,98985.63
2018-11-07T18:43:15.875Z,98991.38
2018-11-07T18:45:43.442Z,98986.29
2018-11-07T18:48:10.983Z,98994.22
2018-11-07T18:50:38.649Z,98992.73
2018-11-07T18:53:06.147Z,99011.07
2018-11-07T18:55:33.755Z,99005.41
2018-11-07T18:58:02.106Z,99009.14
2018-11-07T19:00:29.758Z,99014.75
2018-11-07T19:02:57.712Z,99012.03
2018-11-07T19:05:25.470Z,99021.75
2018-11-07T19:07:53.097Z,99016.33
2018-11-07T19:10:20.642Z,99023.33
2018-11-07T19:12:48.201Z,99027.66
2018-11-07T19:15:15.785Z,99032.88
2018-11-07T19:17:43.314Z,99018.19
2018-11-07T19:20:13.512Z,99025.24
2018-11-07T19:22:42.333Z,99034.97
2018-11-07T19:25:10.942Z,99039.45
2018-11-07T19:27:38.539Z,99039.66
2018-11-07T19:30:06.106Z,99046.67
2018-11-07T19:32:33.687Z,99053.77
2018-11-07T19:35:01.282Z,99046.35
2018-11-07T19:37:28.862Z,99057.49
2018-11-07T19:39:56.444Z,99053.58
2018-11-07T19:42:24.006Z,99058.42
2018-11-07T19:44:51.669Z,99052.52
2018-11-07T19:47:19.241Z,99062.69
2018-11-07T19:49:46.776Z,99060.11
2018-11-07T19:52:14.332Z,99059.91
2018-11-07T19:54:41.859Z,99069.47
2018-11-07T19:57:09.437Z,99068.23
2018-11-07T19:59:37.006Z,99075.51
2018-11-07T20:02:04.602Z,99079.27
2018-11-07T20:04:32.158Z,99083.56
2018-11-07T20:06:59.738Z,99087.84
2018-11-07T20:09:27.284Z,99084.88
2018-11-07T20:11:54.880Z,99093.24
2018-11-07T20:14:33.425Z,99094.47
2018-11-07T20:17:01.286Z,99099.38
2018-11-07T20:19:28.883Z,99101.50
2018-11-07T20:21:56.428Z,99113.75
2018-11-07T20:24:24.025Z,99117.57
2018-11-07T20:26:51.568Z,99116.69
2018-11-07T20:29:19.138Z,99118.48
2018-11-07T20:31:46.707Z,99119.16
2018-11-07T20:34:14.234Z,99128.20
2018-11-07T20:36:41.799Z,99129.08
2018-11-07T20:39:09.435Z,99131.67
2018-11-07T20:41:37.084Z,99129.23
2018-11-07T20:44:04.537Z,99127.46
2018-11-07T20:46:32.122Z,99125.55
2018-11-07T20:48:59.703Z,99130.25
2018-11-07T20:51:27.202Z,99138.02
2018-11-07T20:53:54.778Z,99144.91
2018-11-07T20:56:22.363Z,99145.61
2018-11-07T20:58:49.945Z,99138.95
2018-11-07T21:01:17.617Z,99145.47
2018-11-07T21:03:45.149Z,99154.08
2018-11-07T21:06:12.716Z,99153.14
2018-11-07T21:08:40.873Z,99154.39
2018-11-07T21:11:08.482Z,99153.98
2018-11-07T21:13:36.024Z,99162.10
2018-11-07T21:16:03.609Z,99157.67
2018-11-07T21:18:31.188Z,99156.44
2018-11-07T21:20:58.771Z,99164.73
2018-11-07T21:23:26.363Z,99160.11
2018-11-07T21:25:53.892Z,99161.88
2018-11-07T21:28:21.496Z,99163.23
2018-11-07T21:30:49.157Z,99169.50
2018-11-07T21:33:16.757Z,99165.58
2018-11-07T21:35:45.607Z,99165.20
2018-11-07T21:38:13.603Z,99173.47
2018-11-07T21:40:41.520Z,99178.01
2018-11-07T21:43:09.161Z,99177.01
2018-11-07T21:45:37.137Z,99185.16
2018-11-07T21:48:05.075Z,99188.27
2018-11-07T21:50:33.094Z,99188.91
2018-11-07T21:53:00.957Z,99191.19
2018-11-07T21:55:28.968Z,99187.95
2018-11-07T21:57:56.696Z,99190.70
2018-11-07T22:00:24.640Z,99196.48
2018-11-07T22:02:52.673Z,99200.95
2018-11-07T22:05:20.582Z,99198.50
2018-11-07T22:07:48.569Z,99204.28
2018-11-07T22:10:16.535Z,99203.77
2018-11-07T22:12:44.469Z,99202.00
2018-11-07T22:15:13.075Z,99206.94
2018-11-07T22:17:41.981Z,99209.23
2018-11-07T22:20:10.054Z,99205.08
2018-11-07T22:22:38.141Z,99204.72
2018-11-07T22:25:06.020Z,99209.16
2018-11-07T22:27:33.908Z,99214.45
2018-11-07T22:30:01.805Z,99212.59
2018-11-07T22:32:29.811Z,99220.86
2018-11-07T22:34:57.432Z,99215.41
2018-11-07T22:37:25.024Z,99220.50
2018-11-07T22:39:52.614Z,99225.92
2018-11-07T22:42:20.175Z,99227.41
2018-11-07T22:44:47.776Z,99229.45
2018-11-07T22:47:23.191Z,99223.98
2018-11-07T22:49:50.774Z,99226.67
2018-11-07T22:52:18.361Z,99223.06
2018-11-07T22:54:45.949Z,99231.73
2018-11-07T22:57:13.475Z,99232.16
2018-11-07T22:59:41.074Z,99239.63
2018-11-07T23:02:08.602Z,99242.13
2018-11-07T23:04:36.180Z,99246.65
2018-11-07T23:07:03.779Z,99252.88
2018-11-07T23:09:31.314Z,99254.69
2018-11-07T23:11:58.888Z,99255.92
2018-11-07T23:14:26.444Z,99253.13
2018-11-07T23:16:54.008Z,99261.92
2018-11-07T23:19:21.589Z,99267.35
2018-11-07T23:21:49.212Z,99262.65
2018-11-07T23:24:16.796Z,99260.02
2018-11-07T23:26:44.326Z,99258.72
2018-11-07T23:29:11.904Z,99263.20
2018-11-07T23:31:39.618Z,99269.23
2018-11-07T23:34:07.168Z,99267.00
2018-11-07T23:36:34.757Z,99268.11
2018-11-07T23:39:02.322Z,99274.45
2018-11-07T23:41:30.364Z,99272.94
2018-11-07T23:43:57.929Z,99279.22
2018-11-07T23:46:25.527Z,99279.53
2018-11-07T23:48:53.056Z,99288.06
2018-11-07T23:51:20.659Z,99295.84
2018-11-07T23:53:48.185Z,99295.81
2018-11-07T23:56:15.806Z,99300.71
2018-11-07T23:58:43.360Z,99301.53
